Time;durP1;ratioP1;P1;durP2;ratioP2;P2;SDS_P1;SDS_P2;PMS_P1;PMS_P2;Temp;Humidity;BMP_temperature;BMP_pressure;BME280_temperature;BME280_humidity;BME280_pressure;Samples;Min_cycle;Max_cycle;Signal;HPM_P1;HPM_P2
2022/07/12 00:00:03;;;;;;;5.07;4.67;;;17.20;99.90;;;;;;5117248;28;20450;-83
2022/07/12 00:02:32;;;;;;;4.80;4.40;;;17.20;99.90;;;;;;5117236;28;20944;-81
2022/07/12 00:05:00;;;;;;;4.90;4.50;;;17.20;99.90;;;;;;5116525;28;20547;-83
2022/07/12 00:07:30;;;;;;;4.93;4.53;;;17.10;99.90;;;;;;5115653;28;20482;-82
2022/07/12 00:09:59;;;;;;;4.70;4.30;;;17.10;99.90;;;;;;5115461;28;20467;-83
2022/07/12 00:12:27;;;;;;;4.97;4.57;;;17.10;99.90;;;;;;5115721;28;20447;-83
2022/07/12 00:14:56;;;;;;;4.30;3.83;;;17.10;99.90;;;;;;5115184;28;20494;-81
2022/07/12 00:17:24;;;;;;;4.37;3.97;;;17.10;99.90;;;;;;5118073;28;20433;-83
2022/07/12 00:19:52;;;;;;;4.83;3.70;;;17.10;99.90;;;;;;5119486;28;20418;-81
2022/07/12 00:22:22;;;;;;;6.67;3.93;;;17.10;99.90;;;;;;5120341;28;20448;-83
2022/07/12 00:24:52;;;;;;;4.20;3.80;;;17.10;99.90;;;;;;5118521;28;20463;-82
2022/07/12 00:27:20;;;;;;;4.37;3.87;;;17.10;99.90;;;;;;5119500;28;20434;-82
2022/07/12 00:29:48;;;;;;;4.30;3.77;;;17.10;99.90;;;;;;5118310;28;20463;-84
2022/07/12 00:32:16;;;;;;;6.03;3.27;;;17.10;99.90;;;;;;5122421;28;20455;-83
2022/07/12 00:34:44;;;;;;;4.77;4.23;;;17.10;99.90;;;;;;5120965;28;20439;-83
2022/07/12 00:37:12;;;;;;;4.27;3.87;;;17.10;99.90;;;;;;5116246;28;20447;-83
2022/07/12 00:39:41;;;;;;;4.20;3.63;;;17.10;99.90;;;;;;5117847;28;20486;-83
2022/07/12 00:42:10;;;;;;;4.10;3.70;;;17.10;99.90;;;;;;5118114;28;20438;-83
2022/07/12 00:44:39;;;;;;;4.20;3.80;;;17.10;99.90;;;;;;5117735;28;20549;-83
2022/07/12 00:47:07;;;;;;;4.40;3.70;;;17.10;99.90;;;;;;5117203;28;20422;-84
2022/07/12 00:49:35;;;;;;;5.20;3.87;;;17.10;99.90;;;;;;5116631;28;20473;-84
2022/07/12 00:52:04;;;;;;;3.63;3.33;;;17.10;99.90;;;;;;5120725;28;20472;-82
2022/07/12 00:54:32;;;;;;;4.13;3.73;;;17.10;99.90;;;;;;5120087;28;20429;-83
2022/07/12 00:57:00;;;;;;;3.57;2.87;;;17.10;99.90;;;;;;5120157;28;20443;-83
2022/07/12 00:59:30;;;;;;;4.30;3.90;;;17.10;99.90;;;;;;5121135;28;20442;-83
2022/07/12 01:01:58;;;;;;;4.07;3.70;;;17.10;99.90;;;;;;5120199;28;20540;-83
2022/07/12 01:04:27;;;;;;;4.00;3.60;;;17.10;99.90;;;;;;5120026;28;20436;-83
2022/07/12 01:06:55;;;;;;;4.43;3.70;;;17.10;99.90;;;;;;5119232;28;20949;-82
2022/07/12 01:09:24;;;;;;;4.40;4.00;;;17.10;99.90;;;;;;5119428;28;20443;-82
2022/07/12 01:11:53;;;;;;;5.57;3.63;;;17.10;99.90;;;;;;5119558;28;20545;-83
2022/07/12 01:14:22;;;;;;;4.43;3.87;;;17.10;99.90;;;;;;5119100;28;20457;-84
2022/07/12 01:16:52;;;;;;;4.50;3.80;;;17.10;99.90;;;;;;5118702;28;20919;-83
2022/07/12 01:19:22;;;;;;;5.40;5.00;;;17.10;99.90;;;;;;5118473;28;20501;-84
2022/07/12 01:21:51;;;;;;;4.63;4.17;;;17.10;99.90;;;;;;5118146;28;20434;-83
2022/07/12 01:24:21;;;;;;;4.77;4.37;;;17.10;99.90;;;;;;5118896;28;20483;-83
2022/07/12 01:26:51;;;;;;;4.33;3.93;;;17.10;99.90;;;;;;5119871;28;20898;-82
2022/07/12 01:29:19;;;;;;;4.07;3.70;;;17.10;99.90;;;;;;5118809;28;20509;-83
2022/07/12 01:31:48;;;;;;;4.20;3.80;;;17.10;99.90;;;;;;5118592;28;20552;-83
2022/07/12 01:34:16;;;;;;;4.63;4.23;;;17.10;99.90;;;;;;5119686;28;20928;-81
2022/07/12 01:36:45;;;;;;;4.03;3.63;;;17.10;99.90;;;;;;5117992;28;20513;-83
2022/07/12 01:39:14;;;;;;;5.30;4.30;;;17.10;99.90;;;;;;5119336;28;20447;-84
2022/07/12 01:41:44;;;;;;;7.20;6.50;;;17.10;99.90;;;;;;5118623;28;21011;-83
2022/07/12 01:44:13;;;;;;;5.10;4.60;;;17.10;99.90;;;;;;5118979;28;20974;-80
2022/07/12 01:46:41;;;;;;;5.90;5.10;;;17.00;99.90;;;;;;5118747;28;20490;-83
2022/07/12 01:49:09;;;;;;;5.50;4.90;;;17.00;99.90;;;;;;5118492;28;20478;-81
2022/07/12 01:51:37;;;;;;;6.00;5.50;;;17.00;99.90;;;;;;5118847;28;20478;-83
2022/07/12 01:54:06;;;;;;;7.27;6.67;;;17.00;99.90;;;;;;5118070;28;20467;-82
2022/07/12 01:56:35;;;;;;;8.07;7.37;;;17.00;99.90;;;;;;5118742;28;20426;-82
2022/07/12 01:59:05;;;;;;;8.40;7.70;;;17.00;99.90;;;;;;5118375;28;20471;-83
2022/07/12 02:01:34;;;;;;;8.10;7.50;;;17.00;99.90;;;;;;5117841;28;20458;-81
2022/07/12 02:04:04;;;;;;;8.10;7.50;;;17.00;99.90;;;;;;5119844;28;20477;-81
2022/07/12 02:06:33;;;;;;;9.90;9.00;;;17.00;99.90;;;;;;5120138;28;20447;-82
2022/07/12 02:09:01;;;;;;;10.53;9.63;;;17.00;99.90;;;;;;5120534;28;20465;-81
2022/07/12 02:11:29;;;;;;;8.53;7.83;;;17.00;99.90;;;;;;5120884;28;20499;-81
2022/07/12 02:13:58;;;;;;;9.37;8.57;;;17.00;99.90;;;;;;5121812;28;20498;-82
2022/07/12 02:16:27;;;;;;;9.27;8.37;;;16.90;99.90;;;;;;5116803;28;20937;-83
2022/07/12 02:18:56;;;;;;;8.40;7.70;;;16.90;99.90;;;;;;5117716;28;20445;-82
2022/07/12 02:21:24;;;;;;;8.77;8.17;;;16.90;99.90;;;;;;5116423;28;20470;-83
2022/07/12 02:23:53;;;;;;;8.20;7.60;;;16.90;99.90;;;;;;5116697;28;20474;-84
2022/07/12 02:26:21;;;;;;;8.40;7.70;;;16.90;99.90;;;;;;5116750;28;20467;-82
2022/07/12 02:28:49;;;;;;;8.53;7.93;;;16.90;99.90;;;;;;5118249;28;20439;-81
2022/07/12 02:31:18;;;;;;;10.60;9.87;;;16.90;99.90;;;;;;5116280;28;21045;-81
2022/07/12 02:33:47;;;;;;;9.60;8.90;;;16.90;99.90;;;;;;5116448;28;20432;-81
2022/07/12 02:36:16;;;;;;;8.73;8.10;;;16.90;99.90;;;;;;5117414;28;20543;-82
2022/07/12 02:38:44;;;;;;;7.83;7.23;;;16.90;99.90;;;;;;5117364;28;20448;-80
2022/07/12 02:41:12;;;;;;;8.07;7.47;;;16.90;99.90;;;;;;5116804;28;20877;-82
2022/07/12 02:43:40;;;;;;;7.33;6.73;;;16.90;99.90;;;;;;5116846;28;20451;-82
2022/07/12 02:46:11;;;;;;;7.30;6.80;;;16.80;99.90;;;;;;5117815;28;20519;-82
2022/07/12 02:48:40;;;;;;;5.97;5.47;;;16.80;99.90;;;;;;5116809;28;20422;-82
2022/07/12 02:51:10;;;;;;;5.30;4.80;;;16.80;99.90;;;;;;5117667;28;20492;-82
2022/07/12 02:53:39;;;;;;;5.30;4.80;;;16.80;99.90;;;;;;5116771;28;20517;-82
2022/07/12 02:56:09;;;;;;;4.43;4.03;;;16.80;99.90;;;;;;5116531;28;20418;-83
2022/07/12 02:58:38;;;;;;;4.97;4.57;;;16.80;99.90;;;;;;5116915;28;20443;-82
2022/07/12 03:01:06;;;;;;;3.73;3.43;;;16.80;99.90;;;;;;5116580;28;20817;-83
2022/07/12 03:03:35;;;;;;;3.93;3.40;;;16.80;99.90;;;;;;5116762;28;20788;-84
2022/07/12 03:06:03;;;;;;;4.53;3.83;;;16.70;99.90;;;;;;5119068;28;20505;-82
2022/07/12 03:08:33;;;;;;;3.90;3.07;;;16.70;99.90;;;;;;5118358;28;20921;-84
2022/07/12 03:11:02;;;;;;;3.67;3.37;;;16.70;99.90;;;;;;5116856;28;20550;-82
2022/07/12 03:13:30;;;;;;;3.40;3.10;;;16.70;99.90;;;;;;5116811;28;20421;-82
2022/07/12 03:15:59;;;;;;;4.40;4.00;;;16.70;99.90;;;;;;5116906;28;20461;-83
2022/07/12 03:18:28;;;;;;;3.30;2.67;;;16.70;99.90;;;;;;5118338;28;20497;-82
2022/07/12 03:20:56;;;;;;;4.47;3.87;;;16.70;99.90;;;;;;5116775;28;20452;-83
2022/07/12 03:23:25;;;;;;;3.23;2.90;;;16.80;99.90;;;;;;5116696;28;20417;-83
2022/07/12 03:25:54;;;;;;;3.87;3.00;;;16.70;99.90;;;;;;5116599;28;20426;-83
2022/07/12 03:28:23;;;;;;;3.53;3.23;;;16.80;99.90;;;;;;5116115;28;20435;-82
2022/07/12 03:30:51;;;;;;;3.70;3.40;;;16.80;99.90;;;;;;5116385;28;20459;-83
2022/07/12 03:33:19;;;;;;;3.27;2.97;;;16.80;99.90;;;;;;5116434;28;20415;-83
2022/07/12 03:35:47;;;;;;;4.03;3.53;;;16.70;99.90;;;;;;5118092;28;20486;-82
2022/07/12 03:38:16;;;;;;;4.57;4.17;;;16.70;99.90;;;;;;5116227;28;20813;-83
2022/07/12 03:40:44;;;;;;;5.13;4.63;;;16.70;99.90;;;;;;5117123;28;20453;-81
2022/07/12 03:43:14;;;;;;;6.10;4.73;;;16.70;99.90;;;;;;5116120;28;20451;-84
2022/07/12 03:45:43;;;;;;;4.20;3.07;;;16.70;99.90;;;;;;5120742;28;20418;-83
2022/07/12 03:48:11;;;;;;;3.57;3.27;;;16.70;99.90;;;;;;5118518;28;20432;-82
2022/07/12 03:50:39;;;;;;;3.67;3.37;;;16.70;99.90;;;;;;5117347;28;20446;-83
2022/07/12 03:53:07;;;;;;;3.37;2.97;;;16.70;99.90;;;;;;5115285;28;20438;-81
2022/07/12 03:55:36;;;;;;;3.43;2.83;;;16.70;99.90;;;;;;5115599;28;20442;-79
2022/07/12 03:58:04;;;;;;;3.87;3.57;;;16.70;99.90;;;;;;5116042;28;20513;-81
2022/07/12 04:00:34;;;;;;;4.90;4.40;;;16.70;99.90;;;;;;5115906;28;20469;-80
2022/07/12 04:03:02;;;;;;;4.40;4.00;;;16.70;99.90;;;;;;5115826;28;20440;-81
2022/07/12 04:05:30;;;;;;;4.93;4.43;;;16.80;99.90;;;;;;5115481;28;20414;-81
2022/07/12 04:08:00;;;;;;;4.00;3.53;;;16.70;99.90;;;;;;5116166;28;20458;-83
2022/07/12 04:10:29;;;;;;;3.67;3.20;;;16.70;99.90;;;;;;5118170;28;20463;-83
2022/07/12 04:12:57;;;;;;;3.60;2.80;;;16.70;99.90;;;;;;5118690;28;20475;-83
2022/07/12 04:15:25;;;;;;;3.20;2.90;;;16.80;99.90;;;;;;5117659;28;20876;-83
2022/07/12 04:17:55;;;;;;;4.67;3.10;;;16.70;99.90;;;;;;5118694;28;21007;-82
2022/07/12 04:20:23;;;;;;;4.57;3.50;;;16.70;99.90;;;;;;5118291;28;20467;-82
2022/07/12 04:22:52;;;;;;;3.63;2.70;;;16.80;99.90;;;;;;5117675;28;20923;-83
2022/07/12 04:25:21;;;;;;;3.30;3.00;;;16.80;99.90;;;;;;5118466;28;20431;-83
2022/07/12 04:27:49;;;;;;;3.37;2.67;;;16.80;99.90;;;;;;5123043;28;20467;-83
2022/07/12 04:30:17;;;;;;;3.33;3.03;;;16.80;99.90;;;;;;5121643;28;20445;-83
2022/07/12 04:32:46;;;;;;;3.17;2.97;;;16.80;99.90;;;;;;5120981;28;20441;-83
2022/07/12 04:35:15;;;;;;;4.00;3.20;;;16.90;99.90;;;;;;5121136;28;20447;-83
2022/07/12 04:37:43;;;;;;;3.53;3.03;;;16.90;99.90;;;;;;5121811;28;20832;-83
2022/07/12 04:40:13;;;;;;;3.23;2.93;;;16.90;99.90;;;;;;5120610;28;20453;-82
2022/07/12 04:42:41;;;;;;;4.13;3.50;;;16.90;99.90;;;;;;5121744;28;20854;-83
2022/07/12 04:45:09;;;;;;;3.07;2.80;;;16.90;99.90;;;;;;5119950;28;20450;-82
2022/07/12 04:47:38;;;;;;;4.50;3.07;;;16.90;99.90;;;;;;5121467;28;20911;-83
2022/07/12 04:50:07;;;;;;;3.40;3.10;;;16.90;99.90;;;;;;5119869;28;20539;-83
2022/07/12 04:52:37;;;;;;;3.50;3.20;;;16.80;99.90;;;;;;5121031;28;20971;-82
2022/07/12 04:55:06;;;;;;;3.63;3.07;;;16.80;99.90;;;;;;5121334;28;20477;-82
2022/07/12 04:57:34;;;;;;;3.83;3.53;;;16.80;99.90;;;;;;5119504;28;20449;-82
2022/07/12 05:00:03;;;;;;;3.23;2.93;;;16.80;99.90;;;;;;5119885;28;20418;-82
2022/07/12 05:02:32;;;;;;;3.87;3.57;;;16.80;99.90;;;;;;5119757;28;20418;-83
2022/07/12 05:05:01;;;;;;;3.00;2.70;;;16.80;99.90;;;;;;5120875;28;20474;-83
2022/07/12 05:07:29;;;;;;;3.33;3.03;;;16.90;99.90;;;;;;5119454;28;20859;-82
2022/07/12 05:09:59;;;;;;;3.17;2.87;;;16.90;99.90;;;;;;5119400;28;20440;-82
2022/07/12 05:12:27;;;;;;;3.13;2.70;;;16.90;99.90;;;;;;5120275;28;20441;-82
2022/07/12 05:14:56;;;;;;;2.70;2.50;;;16.90;99.90;;;;;;5120185;28;20447;-83
2022/07/12 05:17:24;;;;;;;2.57;2.33;;;17.00;99.90;;;;;;5120973;28;20421;-83
2022/07/12 05:19:53;;;;;;;5.27;3.40;;;17.00;99.90;;;;;;5121163;28;20448;-82
2022/07/12 05:22:21;;;;;;;3.23;2.93;;;17.00;99.90;;;;;;5122882;28;20494;-83
2022/07/12 05:24:49;;;;;;;2.77;2.57;;;17.00;99.90;;;;;;5123737;28;20538;-83
2022/07/12 05:27:19;;;;;;;3.10;2.70;;;17.00;99.90;;;;;;5121293;28;20414;-83
2022/07/12 05:29:47;;;;;;;3.07;2.77;;;17.00;99.90;;;;;;5119709;28;20436;-83
2022/07/12 05:32:15;;;;;;;3.17;2.87;;;17.00;99.90;;;;;;5121113;28;20529;-82
2022/07/12 05:34:43;;;;;;;2.80;2.60;;;17.00;99.90;;;;;;5119593;28;20432;-82
2022/07/12 05:37:12;;;;;;;3.20;2.90;;;17.00;99.90;;;;;;5119310;28;20424;-82
2022/07/12 05:39:40;;;;;;;2.63;2.43;;;17.00;99.90;;;;;;5121365;28;20441;-83
2022/07/12 05:42:12;;;;;;;2.97;2.50;;;17.00;99.90;;;;;;5119540;28;20480;-82
2022/07/12 05:44:41;;;;;;;3.80;2.97;;;17.00;99.90;;;;;;5129169;28;20550;-82
2022/07/12 05:47:10;;;;;;;2.77;2.50;;;17.10;99.90;;;;;;5133819;28;20414;-82
2022/07/12 05:49:38;;;;;;;3.70;2.90;;;17.10;99.90;;;;;;5133704;28;20447;-82
2022/07/12 05:54:52;;;;;;;2.80;2.60;;;17.50;99.90;;;;;;5133213;28;20439;-82
2022/07/12 05:57:21;;;;;;;2.33;2.10;;;17.80;99.90;;;;;;5128916;28;20445;-80
2022/07/12 05:59:50;;;;;;;6.97;5.20;;;18.10;99.90;;;;;;5128449;28;20426;-81
2022/07/12 06:02:19;;;;;;;2.70;2.50;;;18.30;99.90;;;;;;5129720;28;20447;-82
2022/07/12 06:04:47;;;;;;;2.50;2.30;;;18.70;99.90;;;;;;5127682;28;20471;-82
2022/07/12 06:07:18;;;;;;;3.07;2.63;;;18.90;99.90;;;;;;5128367;28;20459;-82
2022/07/12 06:09:47;;;;;;;2.97;2.67;;;19.30;99.90;;;;;;5127422;28;20448;-81
2022/07/12 06:12:15;;;;;;;2.63;2.20;;;19.60;99.90;;;;;;5126381;28;20471;-82
2022/07/12 06:14:43;;;;;;;3.70;2.87;;;19.80;99.90;;;;;;5122277;28;20496;-82
2022/07/12 06:17:13;;;;;;;2.80;2.47;;;20.00;99.90;;;;;;5124287;28;20447;-81
2022/07/12 06:19:41;;;;;;;3.10;2.80;;;20.30;99.90;;;;;;5123591;28;20510;-82
2022/07/12 06:22:10;;;;;;;3.70;2.30;;;20.60;99.90;;;;;;5123508;28;20455;-82
2022/07/12 06:24:38;;;;;;;4.03;2.90;;;20.80;99.90;;;;;;5123076;28;20843;-82
2022/07/12 06:27:06;;;;;;;2.90;2.60;;;21.00;99.90;;;;;;5126166;28;20968;-82
2022/07/12 06:29:34;;;;;;;2.90;2.70;;;21.20;99.90;;;;;;5126017;28;20466;-82
2022/07/12 06:32:03;;;;;;;2.37;2.17;;;21.50;99.90;;;;;;5123165;28;20468;-83
2022/07/12 06:34:33;;;;;;;3.07;2.77;;;21.70;99.90;;;;;;5117362;28;20463;-83
2022/07/12 06:37:01;;;;;;;3.93;2.53;;;21.90;99.90;;;;;;5117905;28;20443;-83
2022/07/12 06:39:29;;;;;;;3.23;2.67;;;22.10;99.90;;;;;;5117763;28;20520;-83
2022/07/12 06:41:57;;;;;;;3.13;2.80;;;22.20;99.90;;;;;;5118052;28;20478;-82
2022/07/12 06:44:26;;;;;;;2.60;2.40;;;22.30;99.90;;;;;;5117706;28;20821;-81
2022/07/12 06:46:54;;;;;;;3.83;3.50;;;22.30;99.90;;;;;;5118676;28;20435;-82
2022/07/12 06:49:23;;;;;;;4.00;3.07;;;22.20;99.90;;;;;;5117881;28;20477;-83
2022/07/12 06:51:52;;;;;;;5.07;4.57;;;22.20;99.90;;;;;;5117427;28;20562;-82
2022/07/12 06:54:21;;;;;;;2.77;2.57;;;22.10;99.90;;;;;;5117559;28;20475;-82
2022/07/12 06:56:49;;;;;;;3.53;3.20;;;22.20;99.90;;;;;;5118909;28;20428;-82
2022/07/12 06:59:17;;;;;;;2.23;2.03;;;22.10;99.90;;;;;;5118669;28;20854;-82
2022/07/12 07:01:46;;;;;;;2.83;2.50;;;22.00;99.90;;;;;;5116377;28;20469;-81
2022/07/12 07:04:14;;;;;;;3.20;2.63;;;22.00;99.90;;;;;;5116346;28;20641;-81
2022/07/12 07:06:43;;;;;;;3.10;2.47;;;21.90;99.90;;;;;;5116193;28;20448;-82
2022/07/12 07:09:13;;;;;;;3.20;2.57;;;21.90;99.90;;;;;;5117772;28;20439;-82
2022/07/12 07:11:41;;;;;;;3.07;2.77;;;21.90;99.90;;;;;;5117352;28;20451;-83
2022/07/12 07:14:09;;;;;;;5.67;2.83;;;21.90;99.90;;;;;;5118102;28;20499;-81
2022/07/12 07:16:38;;;;;;;2.50;2.30;;;21.80;99.90;;;;;;5116292;28;20447;-84
2022/07/12 07:19:06;;;;;;;2.97;2.67;;;21.80;99.90;;;;;;5116321;28;20447;-81
2022/07/12 07:21:34;;;;;;;3.20;2.90;;;21.80;99.90;;;;;;5116009;28;21068;-82
2022/07/12 07:24:03;;;;;;;2.50;2.30;;;21.90;99.90;;;;;;5116113;28;20485;-82
2022/07/12 07:26:34;;;;;;;3.60;2.73;;;21.90;99.90;;;;;;5116117;28;20483;-82
2022/07/12 07:31:48;;;;;;;2.77;2.57;;;21.90;99.90;;;;;;5116267;28;20463;-82
2022/07/12 07:34:16;;;;;;;3.30;2.57;;;21.90;99.90;;;;;;5116425;28;20467;-82
2022/07/12 07:36:44;;;;;;;3.10;2.90;;;21.90;99.90;;;;;;5115639;28;20454;-82
2022/07/12 07:39:13;;;;;;;2.33;2.10;;;21.80;99.90;;;;;;5115666;28;21035;-83
2022/07/12 07:41:49;;;;;;;2.67;2.23;;;21.90;99.90;;;;;;5117826;28;20460;-83
2022/07/12 07:44:18;;;;;;;2.43;2.20;;;21.90;99.90;;;;;;5117093;28;20454;-82
2022/07/12 07:46:46;;;;;;;2.60;2.37;;;21.90;99.90;;;;;;5116650;28;20463;-86
2022/07/12 07:49:14;;;;;;;2.63;2.03;;;21.90;99.90;;;;;;5116203;28;20479;-83
2022/07/12 07:51:43;;;;;;;2.70;1.97;;;22.00;99.90;;;;;;5116245;28;20470;-83
2022/07/12 07:54:11;;;;;;;2.50;2.30;;;22.00;99.90;;;;;;5116693;28;20470;-82
2022/07/12 07:56:39;;;;;;;2.87;2.50;;;22.00;99.90;;;;;;5116535;28;20443;-83
2022/07/12 07:59:09;;;;;;;3.77;2.57;;;22.10;99.90;;;;;;5116503;28;20494;-81
2022/07/12 08:01:44;;;;;;;2.70;2.50;;;22.10;99.90;;;;;;5121306;28;20463;-82
2022/07/12 08:04:13;;;;;;;3.20;2.90;;;22.30;99.90;;;;;;5122549;28;20439;-85
2022/07/12 08:06:42;;;;;;;4.37;2.87;;;22.40;99.90;;;;;;5123848;28;20438;-84
2022/07/12 08:09:11;;;;;;;2.93;2.73;;;22.60;99.90;;;;;;5123809;28;20466;-85
2022/07/12 08:11:41;;;;;;;3.10;2.60;;;22.80;99.90;;;;;;5121410;28;20459;-84
2022/07/12 08:14:11;;;;;;;2.90;2.70;;;23.00;99.90;;;;;;5122672;28;21058;-84
2022/07/12 08:16:39;;;;;;;2.30;2.10;;;23.10;99.90;;;;;;5120525;28;20439;-83
2022/07/12 08:19:08;;;;;;;4.23;2.63;;;23.30;99.90;;;;;;5121264;28;20473;-80
2022/07/12 08:21:36;;;;;;;4.07;3.10;;;23.50;99.90;;;;;;5120898;28;20470;-83
2022/07/12 08:24:04;;;;;;;3.37;3.07;;;23.60;99.90;;;;;;5120572;28;20439;-82
2022/07/12 08:26:33;;;;;;;2.97;2.77;;;23.70;99.90;;;;;;5120606;28;20458;-83
2022/07/12 08:29:01;;;;;;;2.50;2.00;;;23.80;99.90;;;;;;5120112;28;20453;-83
2022/07/12 08:31:31;;;;;;;3.80;2.87;;;23.90;99.90;;;;;;5120639;28;20520;-85
2022/07/12 08:33:59;;;;;;;2.70;2.50;;;23.90;99.90;;;;;;5122113;28;20534;-82
2022/07/12 08:36:27;;;;;;;2.67;2.30;;;23.80;99.90;;;;;;5120535;28;20496;-82
2022/07/12 08:39:01;;;;;;;2.27;2.07;;;23.90;99.90;;;;;;5120181;28;20447;-84
2022/07/12 08:41:29;;;;;;;2.93;2.17;;;23.80;99.90;;;;;;5119736;28;20976;-82
2022/07/12 08:43:58;;;;;;;2.70;2.20;;;23.80;99.90;;;;;;5120143;28;20479;-82
2022/07/12 08:46:26;;;;;;;4.90;4.50;;;23.80;99.90;;;;;;5119600;28;20973;-83
2022/07/12 08:48:56;;;;;;;2.30;2.10;;;23.80;99.90;;;;;;5119651;28;20455;-83
2022/07/12 08:51:24;;;;;;;2.33;2.00;;;23.80;99.90;;;;;;5119305;28;20474;-83
2022/07/12 08:54:07;;;;;;;2.40;2.00;;;23.90;99.90;;;;;;5119900;28;22336;-83
2022/07/12 08:56:38;;;;;;;2.70;2.23;;;24.00;99.90;;;;;;5119579;28;20973;-82
2022/07/12 08:59:11;;;;;;;4.13;2.37;;;24.20;99.90;;;;;;5119354;28;20475;-84
2022/07/12 09:01:41;;;;;;;3.17;2.87;;;24.30;99.90;;;;;;5119599;28;20520;-84
2022/07/12 09:04:15;;;;;;;4.63;2.50;;;24.30;99.90;;;;;;5119738;28;20550;-82
2022/07/12 09:06:43;;;;;;;4.10;2.63;;;24.30;99.90;;;;;;5119264;28;20541;-82
2022/07/12 09:09:12;;;;;;;3.07;2.43;;;24.40;99.90;;;;;;5124908;28;20459;-83
2022/07/12 09:11:47;;;;;;;2.47;2.10;;;24.40;99.90;;;;;;5129348;28;20543;-81
2022/07/12 09:14:20;;;;;;;2.27;2.07;;;24.50;99.90;;;;;;5131658;28;20455;-82
2022/07/12 09:17:00;;;;;;;2.40;2.20;;;24.50;99.90;;;;;;5124681;28;20449;-84
2022/07/12 09:19:29;;;;;;;2.60;2.10;;;24.50;99.90;;;;;;5118620;28;20443;-83
2022/07/12 09:21:58;;;;;;;2.90;1.93;;;24.50;99.90;;;;;;5118959;28;21018;-83
2022/07/12 09:24:27;;;;;;;2.60;2.40;;;24.60;99.90;;;;;;5118617;28;20538;-82
2022/07/12 09:26:58;;;;;;;3.90;2.50;;;24.60;99.90;;;;;;5118821;28;20504;-83
2022/07/12 09:29:27;;;;;;;2.33;2.13;;;24.60;99.90;;;;;;5118508;28;20492;-83
2022/07/12 09:37:28;;;;;;;2.53;2.33;;;24.70;99.90;;;;;;5118109;28;20442;-83
2022/07/12 09:39:56;;;;;;;3.03;2.20;;;24.70;99.90;;;;;;5119549;28;20436;-83
2022/07/12 09:42:27;;;;;;;3.97;2.20;;;24.80;99.90;;;;;;5117954;28;20468;-82
2022/07/12 09:44:57;;;;;;;2.10;1.90;;;24.90;99.90;;;;;;5117768;28;20812;-81
2022/07/12 09:47:27;;;;;;;2.27;1.90;;;24.90;99.90;;;;;;5118467;28;20997;-82
2022/07/12 09:49:56;;;;;;;2.97;2.50;;;25.00;99.90;;;;;;5117718;28;20455;-83
2022/07/12 09:52:26;;;;;;;2.63;2.03;;;25.00;99.90;;;;;;5117920;28;20455;-82
2022/07/12 09:54:56;;;;;;;2.60;2.40;;;25.10;99.90;;;;;;5117836;28;20542;-84
2022/07/12 09:57:28;;;;;;;4.67;3.43;;;25.10;99.90;;;;;;5117769;28;20496;-82
2022/07/12 09:59:58;;;;;;;2.10;1.90;;;25.00;99.90;;;;;;5119469;28;20511;-83
2022/07/12 10:02:27;;;;;;;2.40;2.20;;;25.00;99.90;;;;;;5117386;28;20463;-82
2022/07/12 10:05:01;;;;;;;4.53;2.67;;;25.10;99.90;;;;;;5117271;28;20452;-80
2022/07/12 10:07:29;;;;;;;2.20;2.00;;;25.10;99.90;;;;;;5117305;28;20451;-82
2022/07/12 10:09:58;;;;;;;3.07;2.40;;;25.20;99.90;;;;;;5116408;28;20447;-82
2022/07/12 10:12:27;;;;;;;3.33;2.80;;;25.20;99.90;;;;;;5116937;28;20566;-82
2022/07/12 10:15:01;;;;;;;3.00;2.80;;;25.30;99.90;;;;;;5116502;28;20498;-82
2022/07/12 10:17:31;;;;;;;3.53;2.50;;;25.30;99.90;;;;;;5116582;28;20500;-81
2022/07/12 10:20:18;;;;;;;2.60;2.40;;;25.30;99.80;;;;;;5120200;28;20431;-82
2022/07/12 10:22:46;;;;;;;3.37;2.40;;;25.30;99.80;;;;;;5118939;28;20435;-82
2022/07/12 10:25:31;;;;;;;2.80;2.50;;;25.40;99.90;;;;;;5118453;28;20471;-83
2022/07/12 10:28:00;;;;;;;2.90;2.60;;;25.50;99.90;;;;;;5117961;28;20481;-82
2022/07/12 10:30:29;;;;;;;4.50;3.20;;;25.60;99.90;;;;;;5117290;28;20525;-82
2022/07/12 10:32:59;;;;;;;4.10;3.60;;;25.60;99.80;;;;;;5117132;28;20447;-84
2022/07/12 10:35:31;;;;;;;3.37;2.33;;;25.60;99.80;;;;;;5116602;28;20463;-82
2022/07/12 10:38:21;;;;;;;3.67;3.37;;;25.70;99.80;;;;;;5116821;28;20451;-83
2022/07/12 10:40:51;;;;;;;3.30;3.00;;;25.80;99.70;;;;;;5118131;28;20968;-82
2022/07/12 10:46:19;;;;;;;3.10;2.80;;;25.80;99.30;;;;;;5117392;28;20470;-82
2022/07/12 10:48:48;;;;;;;4.10;3.63;;;25.80;99.40;;;;;;5116751;28;20971;-83
2022/07/12 10:51:20;;;;;;;4.20;3.80;;;25.80;99.40;;;;;;5118413;28;20512;-80
2022/07/12 10:53:50;;;;;;;4.50;4.10;;;25.90;99.40;;;;;;5117681;28;20523;-82
2022/07/12 10:56:25;;;;;;;4.20;3.90;;;26.00;99.30;;;;;;5117336;28;20566;-82
2022/07/12 10:58:59;;;;;;;8.90;5.40;;;26.10;99.40;;;;;;5116391;28;20538;-81
2022/07/12 11:01:29;;;;;;;5.50;5.10;;;26.20;99.30;;;;;;5118029;28;20487;-82
2022/07/12 11:04:05;;;;;;;6.10;5.60;;;26.30;99.20;;;;;;5116228;28;20921;-81
2022/07/12 11:06:36;;;;;;;7.00;6.40;;;26.40;98.90;;;;;;5117517;28;20431;-82
2022/07/12 11:09:07;;;;;;;7.17;6.53;;;26.40;99.10;;;;;;5115853;28;20440;-81
2022/07/12 11:11:40;;;;;;;9.10;8.20;;;26.40;98.70;;;;;;5116194;28;20528;-82
2022/07/12 11:14:08;;;;;;;8.40;7.70;;;26.40;98.40;;;;;;5115413;28;20847;-82
2022/07/12 11:16:44;;;;;;;11.13;10.23;;;26.40;98.30;;;;;;5115716;28;20467;-81
2022/07/12 11:19:12;;;;;;;9.67;8.87;;;26.50;98.10;;;;;;5116007;28;20443;-81
2022/07/12 11:21:45;;;;;;;12.90;11.80;;;26.50;98.20;;;;;;5115826;28;20546;-83
2022/07/12 11:24:18;;;;;;;12.73;11.63;;;26.50;98.00;;;;;;5117210;28;20506;-81
2022/07/12 11:26:48;;;;;;;12.17;11.07;;;26.50;97.90;;;;;;5116097;28;21009;-81
2022/07/12 11:29:17;;;;;;;11.90;10.90;;;26.50;97.90;;;;;;5115616;28;20444;-81
2022/07/12 11:31:46;;;;;;;12.27;11.27;;;26.50;97.90;;;;;;5115913;28;21000;-81
2022/07/12 11:34:21;;;;;;;12.67;11.57;;;26.60;97.90;;;;;;5116002;28;20446;-83
2022/07/12 11:36:54;;;;;;;10.90;9.90;;;26.60;97.80;;;;;;5115532;28;20541;-83
2022/07/12 11:39:33;;;;;;;9.63;8.73;;;26.70;97.80;;;;;;5115296;28;20442;-82
2022/07/12 11:42:02;;;;;;;8.80;8.00;;;26.70;98.00;;;;;;5115045;28;20471;-82
2022/07/12 11:44:44;;;;;;;9.10;8.20;;;26.80;97.60;;;;;;5115388;28;20520;-82
2022/07/12 11:47:14;;;;;;;10.00;9.00;;;26.80;97.30;;;;;;5117663;28;20488;-83
2022/07/12 11:49:46;;;;;;;9.03;8.13;;;26.80;97.40;;;;;;5118226;28;20447;-81
2022/07/12 11:52:17;;;;;;;7.20;6.60;;;26.90;97.20;;;;;;5117851;28;21004;-83
2022/07/12 11:54:45;;;;;;;6.50;5.80;;;26.90;97.10;;;;;;5117429;28;20439;-81
2022/07/12 11:57:15;;;;;;;5.70;5.20;;;26.90;97.00;;;;;;5118303;28;20486;-82
2022/07/12 11:59:43;;;;;;;6.03;5.50;;;26.90;97.00;;;;;;5116905;28;20439;-82
2022/07/12 12:02:15;;;;;;;6.93;5.87;;;26.90;97.00;;;;;;5117423;28;20980;-82
2022/07/12 12:04:48;;;;;;;4.90;4.30;;;26.90;96.80;;;;;;5116300;28;20455;-83
2022/07/12 12:07:19;;;;;;;5.07;4.57;;;26.90;96.70;;;;;;5117491;28;20427;-82
2022/07/12 12:09:59;;;;;;;4.63;4.20;;;26.90;96.80;;;;;;5115646;28;20450;-82
2022/07/12 12:12:27;;;;;;;4.43;4.00;;;27.00;96.90;;;;;;5115596;28;20471;-81
2022/07/12 12:14:56;;;;;;;4.20;3.57;;;27.00;96.90;;;;;;5115349;28;20431;-82
2022/07/12 12:17:24;;;;;;;4.70;4.17;;;27.00;96.70;;;;;;5115676;28;20587;-82
2022/07/12 12:19:52;;;;;;;3.30;2.87;;;27.10;96.70;;;;;;5117730;28;20432;-81
2022/07/12 12:22:34;;;;;;;2.50;2.20;;;27.10;96.70;;;;;;5117319;28;20471;-82
2022/07/12 12:25:05;;;;;;;2.90;2.13;;;27.10;96.30;;;;;;5116018;28;20432;-82
2022/07/12 12:27:34;;;;;;;2.40;2.20;;;27.10;96.40;;;;;;5118060;28;20431;-82
2022/07/12 12:30:23;;;;;;;3.50;2.07;;;27.20;96.50;;;;;;5115893;28;20439;-82
2022/07/12 12:32:54;;;;;;;2.60;1.73;;;27.20;96.30;;;;;;5116914;28;20443;-83
2022/07/12 12:35:30;;;;;;;1.70;1.37;;;27.20;96.30;;;;;;5115947;28;20440;-82
2022/07/12 12:38:01;;;;;;;2.20;1.67;;;27.20;96.10;;;;;;5117192;28;20534;-82
2022/07/12 12:40:31;;;;;;;1.70;1.37;;;27.30;96.10;;;;;;5115339;28;20470;-80
2022/07/12 12:43:12;;;;;;;2.00;1.40;;;27.30;96.10;;;;;;5116875;28;20487;-81
2022/07/12 12:45:50;;;;;;;1.60;1.00;;;27.40;96.00;;;;;;5116385;28;20443;-83
2022/07/12 12:48:20;;;;;;;1.40;0.93;;;27.50;95.70;;;;;;5119814;28;20447;-82
2022/07/12 12:50:50;;;;;;;1.40;0.90;;;27.50;95.50;;;;;;5121398;28;20515;-82
2022/07/12 12:53:22;;;;;;;1.30;1.03;;;27.50;95.30;;;;;;5119820;28;20871;-81
2022/07/12 12:55:52;;;;;;;1.50;1.00;;;27.50;95.00;;;;;;5121153;28;20499;-82
2022/07/12 12:58:22;;;;;;;1.37;0.87;;;27.60;95.00;;;;;;5119221;28;20449;-83
2022/07/12 13:00:52;;;;;;;1.70;1.10;;;27.60;95.00;;;;;;5119629;28;20467;-80
2022/07/12 13:03:24;;;;;;;1.30;1.00;;;27.60;94.80;;;;;;5121130;28;20415;-83
2022/07/12 13:05:53;;;;;;;1.50;0.90;;;27.70;94.60;;;;;;5119402;28;20447;-82
2022/07/12 13:08:23;;;;;;;1.40;0.90;;;27.70;94.40;;;;;;5120538;28;20424;-81
2022/07/12 13:11:18;;;;;;;2.43;0.90;;;27.70;94.20;;;;;;5120654;28;20458;-80